Time;durP1;ratioP1;P1;durP2;ratioP2;P2;SDS_P1;SDS_P2;PMS_P1;PMS_P2;Temp;Humidity;BMP_temperature;BMP_pressure;BME280_temperature;BME280_humidity;BME280_pressure;Samples;Min_cycle;Max_cycle;Signal;HPM_P1;HPM_P2
2024/02/06 00:01:50;;;;;;;19.33;5.07;;;10.10;99.90;;;;;;5048854;28;20029;-80
2024/02/06 00:04:16;;;;;;;26.85;5.00;;;10.10;99.90;;;;;;5048944;28;20025;-80
2024/02/06 00:06:42;;;;;;;18.02;4.80;;;10.20;99.90;;;;;;5049792;28;20369;-80
2024/02/06 00:09:08;;;;;;;15.85;4.70;;;10.20;99.90;;;;;;5050729;28;20040;-81
2024/02/06 00:11:34;;;;;;;16.20;4.53;;;10.20;99.90;;;;;;5046324;28;20038;-81
2024/02/06 00:14:00;;;;;;;16.70;4.65;;;10.20;99.90;;;;;;5043376;28;20114;-81
2024/02/06 00:16:25;;;;;;;15.98;4.70;;;10.20;99.90;;;;;;5051713;28;20526;-81
2024/02/06 00:18:51;;;;;;;14.88;4.88;;;10.10;99.90;;;;;;5051064;28;20021;-81
2024/02/06 00:21:16;;;;;;;20.20;5.38;;;10.20;99.90;;;;;;5051323;28;20059;-81
2024/02/06 00:23:42;;;;;;;12.00;4.80;;;10.20;99.90;;;;;;5050105;28;20133;-81
2024/02/06 00:26:08;;;;;;;10.93;3.70;;;10.20;99.90;;;;;;5052228;28;20387;-81
2024/02/06 00:28:34;;;;;;;20.90;5.47;;;10.20;99.90;;;;;;5051034;28;20124;-80
2024/02/06 00:31:00;;;;;;;18.30;4.93;;;10.20;99.90;;;;;;5049537;28;20039;-81
2024/02/06 00:33:25;;;;;;;19.40;5.07;;;10.20;99.90;;;;;;5042453;28;20068;-80
2024/02/06 00:35:51;;;;;;;18.63;5.03;;;10.20;99.90;;;;;;5047010;28;20052;-81
2024/02/06 00:38:16;;;;;;;18.33;5.13;;;10.20;99.90;;;;;;5050002;28;20052;-81
2024/02/06 00:40:42;;;;;;;20.50;4.13;;;10.10;99.90;;;;;;5051308;28;20052;-80
2024/02/06 00:43:08;;;;;;;17.38;4.85;;;10.20;99.90;;;;;;5052074;28;20421;-81
2024/02/06 00:45:33;;;;;;;19.02;4.57;;;10.20;99.90;;;;;;5050323;28;20459;-81
2024/02/06 00:47:59;;;;;;;18.63;5.07;;;10.20;99.90;;;;;;5051636;28;20033;-81
2024/02/06 00:50:24;;;;;;;18.27;4.68;;;10.10;99.90;;;;;;5050871;28;20063;-81
2024/02/06 00:52:51;;;;;;;16.02;4.82;;;10.20;99.90;;;;;;5047128;28;20021;-81
2024/02/06 00:55:19;;;;;;;13.95;4.03;;;10.20;99.90;;;;;;5050625;28;20041;-80
2024/02/06 00:57:45;;;;;;;21.50;5.57;;;10.20;99.90;;;;;;5050965;28;20380;-80
2024/02/06 01:00:12;;;;;;;14.65;4.53;;;10.20;99.90;;;;;;5051829;28;20036;-81
2024/02/06 01:02:38;;;;;;;17.98;4.13;;;10.20;99.90;;;;;;5050765;28;20559;-81
2024/02/06 01:05:04;;;;;;;17.63;3.97;;;10.20;99.90;;;;;;5049452;28;20113;-81
2024/02/06 01:07:30;;;;;;;13.38;4.50;;;10.20;99.90;;;;;;5050175;28;20563;-81
2024/02/06 01:09:56;;;;;;;19.33;4.65;;;10.50;99.90;;;;;;5051099;28;20053;-81
2024/02/06 01:12:22;;;;;;;15.88;3.97;;;10.30;99.90;;;;;;5049569;28;20079;-80
2024/02/06 01:14:48;;;;;;;15.52;4.00;;;10.30;99.90;;;;;;5047685;28;20037;-83
2024/02/06 01:17:13;;;;;;;17.67;4.10;;;10.30;99.90;;;;;;5033418;28;20047;-82
2024/02/06 01:19:39;;;;;;;17.20;4.70;;;10.30;99.90;;;;;;5050705;28;20064;-82
2024/02/06 01:22:05;;;;;;;26.33;4.85;;;10.30;99.90;;;;;;5048219;28;20036;-82
2024/02/06 01:24:31;;;;;;;25.67;4.97;;;10.30;99.90;;;;;;5041946;28;20058;-81
2024/02/06 01:26:56;;;;;;;18.33;4.20;;;10.30;99.90;;;;;;5049861;28;20025;-82
2024/02/06 01:29:22;;;;;;;12.88;3.75;;;10.30;99.90;;;;;;5031620;28;20103;-81
2024/02/06 01:31:47;;;;;;;20.38;4.72;;;10.30;99.90;;;;;;5049863;28;20033;-81
2024/02/06 01:34:15;;;;;;;24.77;4.97;;;10.30;99.90;;;;;;5047721;28;20037;-81
2024/02/06 01:36:40;;;;;;;22.25;4.25;;;10.40;99.90;;;;;;5049840;28;20052;-81
2024/02/06 01:39:07;;;;;;;20.40;4.85;;;11.20;99.90;;;;;;5049621;28;20436;-81
2024/02/06 01:41:32;;;;;;;16.52;5.00;;;10.30;99.90;;;;;;5049632;28;20020;-81
2024/02/06 01:43:58;;;;;;;21.92;5.50;;;10.30;99.90;;;;;;5049921;28;20123;-82
2024/02/06 01:46:25;;;;;;;20.10;3.85;;;10.30;99.90;;;;;;5051821;28;20415;-81
2024/02/06 01:48:50;;;;;;;24.13;4.82;;;10.30;99.90;;;;;;5051690;28;20036;-83
2024/02/06 01:51:18;;;;;;;11.75;4.07;;;10.30;99.90;;;;;;5052904;28;20083;-81
2024/02/06 01:53:44;;;;;;;22.27;4.90;;;10.30;99.90;;;;;;5042994;28;20083;-81
2024/02/06 01:56:11;;;;;;;18.70;4.53;;;10.30;99.90;;;;;;5050456;28;20025;-82
2024/02/06 01:58:37;;;;;;;22.25;4.93;;;10.30;99.90;;;;;;5052684;28;20096;-82
2024/02/06 02:01:04;;;;;;;18.75;4.93;;;10.80;99.90;;;;;;5051757;28;20488;-82
2024/02/06 02:03:33;;;;;;;19.67;4.30;;;10.30;99.90;;;;;;5052307;28;20033;-82
2024/02/06 02:05:59;;;;;;;25.90;4.85;;;10.30;99.90;;;;;;5052830;28;20464;-82
2024/02/06 02:08:31;;;;;;;29.02;4.85;;;10.30;99.90;;;;;;5052459;28;20037;-81
2024/02/06 02:10:56;;;;;;;22.88;4.85;;;10.30;99.90;;;;;;5052252;28;20435;-81
2024/02/06 02:13:22;;;;;;;24.83;5.45;;;10.30;99.90;;;;;;5052505;28;20059;-81
2024/02/06 02:15:48;;;;;;;23.40;5.47;;;10.30;99.90;;;;;;5050610;28;20064;-81
2024/02/06 02:18:13;;;;;;;19.35;4.60;;;10.30;99.90;;;;;;5039698;28;20488;-81
2024/02/06 02:20:40;;;;;;;22.02;3.90;;;10.30;99.90;;;;;;5051608;28;20036;-81
2024/02/06 02:23:06;;;;;;;18.80;4.22;;;10.30;99.90;;;;;;5052138;28;20037;-82
2024/02/06 02:25:32;;;;;;;25.90;4.55;;;10.30;99.90;;;;;;5040565;28;20087;-82
2024/02/06 02:27:58;;;;;;;33.65;6.15;;;10.30;99.90;;;;;;5051302;28;20311;-82
2024/02/06 02:30:25;;;;;;;25.10;5.25;;;11.00;99.90;;;;;;5052005;28;20040;-81
2024/02/06 02:32:53;;;;;;;25.08;5.88;;;10.30;99.90;;;;;;5050778;28;20047;-82
2024/02/06 02:35:18;;;;;;;25.92;4.72;;;10.30;99.90;;;;;;5052066;28;20032;-81
2024/02/06 02:37:44;;;;;;;22.90;6.13;;;10.30;99.90;;;;;;5046529;28;20032;-81
2024/02/06 02:40:10;;;;;;;33.90;5.47;;;10.30;99.90;;;;;;5041960;28;20184;-81
2024/02/06 02:42:36;;;;;;;21.92;4.82;;;10.30;99.90;;;;;;5051824;28;20017;-81
2024/02/06 02:45:02;;;;;;;24.80;5.25;;;10.30;99.90;;;;;;5051212;28;20036;-81
2024/02/06 02:47:27;;;;;;;19.42;5.13;;;10.30;99.90;;;;;;5051688;28;20032;-80
2024/02/06 02:49:53;;;;;;;30.92;6.60;;;10.30;99.90;;;;;;5051614;28;20435;-81
2024/02/06 02:52:19;;;;;;;30.13;4.68;;;10.30;99.90;;;;;;5051157;28;20078;-82
2024/02/06 02:54:44;;;;;;;35.17;6.35;;;10.30;99.90;;;;;;5052094;28;20049;-80
2024/02/06 02:57:09;;;;;;;25.60;5.63;;;10.40;99.90;;;;;;5052072;28;20025;-81
2024/02/06 02:59:35;;;;;;;27.50;5.00;;;10.40;99.90;;;;;;5047940;28;20028;-81
2024/02/06 03:02:01;;;;;;;26.70;5.35;;;10.40;99.90;;;;;;5045086;28;20070;-81
2024/02/06 03:04:27;;;;;;;27.77;5.45;;;10.40;99.90;;;;;;5050782;28;20028;-82
2024/02/06 03:06:52;;;;;;;21.25;4.65;;;10.40;99.90;;;;;;5050652;28;20112;-81
2024/02/06 03:09:21;;;;;;;35.67;6.50;;;10.40;99.90;;;;;;5051494;28;20036;-82
2024/02/06 03:11:46;;;;;;;34.97;5.70;;;10.30;99.90;;;;;;5051455;28;20027;-82
2024/02/06 03:14:12;;;;;;;28.35;5.15;;;10.40;99.90;;;;;;5051148;28;20021;-81
2024/02/06 03:16:38;;;;;;;22.17;4.85;;;10.40;99.90;;;;;;5050835;28;20029;-82
2024/02/06 03:19:04;;;;;;;26.88;5.47;;;10.40;99.90;;;;;;5051255;28;20036;-81
2024/02/06 03:21:30;;;;;;;28.30;5.03;;;10.40;99.90;;;;;;5040264;28;20037;-81
2024/02/06 03:23:55;;;;;;;31.83;5.82;;;10.70;99.90;;;;;;5046577;28;20534;-82
2024/02/06 03:26:21;;;;;;;25.30;5.88;;;10.40;99.90;;;;;;5050941;28;20029;-81
2024/02/06 03:28:46;;;;;;;23.65;5.22;;;10.40;99.90;;;;;;5050498;28;20025;-81
2024/02/06 03:31:12;;;;;;;36.72;5.90;;;10.40;99.90;;;;;;5051628;28;20075;-82
2024/02/06 03:33:37;;;;;;;30.58;5.90;;;10.40;99.90;;;;;;5051295;28;20380;-82
2024/02/06 03:36:03;;;;;;;37.97;6.20;;;10.40;99.90;;;;;;5050871;28;20021;-81
2024/02/06 03:38:29;;;;;;;36.13;5.30;;;10.40;99.90;;;;;;5050796;28;20090;-81
2024/02/06 03:40:54;;;;;;;35.33;6.80;;;10.40;99.90;;;;;;5044328;28;20041;-81
2024/02/06 03:43:20;;;;;;;36.80;5.82;;;10.40;99.90;;;;;;5048501;28;20118;-82
2024/02/06 03:45:45;;;;;;;29.08;5.25;;;10.40;99.90;;;;;;5053948;28;20021;-81
2024/02/06 03:48:13;;;;;;;33.28;5.90;;;10.40;99.90;;;;;;5054567;28;20037;-81
2024/02/06 03:50:39;;;;;;;33.55;6.13;;;10.40;99.90;;;;;;5054889;28;20029;-82
2024/02/06 03:53:04;;;;;;;34.05;6.45;;;10.40;99.90;;;;;;5055142;28;20104;-82
2024/02/06 03:55:31;;;;;;;32.70;7.05;;;10.40;99.90;;;;;;5054753;28;20037;-82
2024/02/06 03:57:57;;;;;;;29.45;5.05;;;10.40;99.90;;;;;;5054726;28;20021;-82
2024/02/06 04:00:22;;;;;;;33.15;4.97;;;10.40;99.90;;;;;;5054974;28;20037;-82
2024/02/06 04:02:48;;;;;;;25.00;5.43;;;10.50;99.90;;;;;;5050021;28;20075;-82
2024/02/06 04:05:14;;;;;;;21.70;5.65;;;10.50;99.90;;;;;;5045276;28;20028;-81
2024/02/06 04:07:39;;;;;;;30.10;5.50;;;10.50;99.90;;;;;;5054002;28;20112;-81
2024/02/06 04:10:05;;;;;;;31.77;6.25;;;10.40;99.90;;;;;;5054084;28;20435;-80
2024/02/06 04:12:32;;;;;;;32.33;6.53;;;10.50;99.90;;;;;;5054331;28;20183;-81
2024/02/06 04:14:59;;;;;;;32.78;6.13;;;10.40;99.90;;;;;;5054793;28;20441;-81
2024/02/06 04:17:24;;;;;;;33.13;5.88;;;10.50;99.90;;;;;;5053815;28;20025;-81
2024/02/06 04:19:50;;;;;;;37.05;5.43;;;10.50;99.90;;;;;;5054438;28;20040;-82
2024/02/06 04:22:15;;;;;;;31.52;6.93;;;10.50;99.90;;;;;;5054885;28;20028;-82
2024/02/06 04:24:41;;;;;;;24.33;5.28;;;10.50;99.90;;;;;;5047083;28;20045;-81
2024/02/06 04:27:07;;;;;;;26.98;5.05;;;10.50;99.90;;;;;;5049600;28;20067;-83
2024/02/06 04:29:34;;;;;;;34.65;6.65;;;10.50;99.90;;;;;;5054084;28;20041;-84
2024/02/06 04:32:00;;;;;;;33.03;7.90;;;11.20;99.90;;;;;;5053163;28;20025;-81
2024/02/06 04:34:27;;;;;;;37.03;5.80;;;10.50;99.90;;;;;;5054280;28;20074;-82
2024/02/06 04:36:53;;;;;;;32.28;5.68;;;10.50;99.90;;;;;;5054430;28;20032;-81
2024/02/06 04:39:18;;;;;;;28.08;6.57;;;10.50;99.90;;;;;;5053915;28;20457;-80
2024/02/06 04:41:44;;;;;;;41.53;8.07;;;10.50;99.90;;;;;;5054026;28;20484;-80
2024/02/06 04:44:10;;;;;;;34.20;5.30;;;10.60;99.90;;;;;;5054384;28;20037;-80
2024/02/06 04:46:35;;;;;;;34.58;6.90;;;10.50;99.90;;;;;;5044587;28;20036;-80
2024/02/06 04:49:01;;;;;;;31.13;5.75;;;10.50;99.90;;;;;;5051293;28;20087;-80
2024/02/06 04:51:27;;;;;;;39.85;5.95;;;10.60;99.90;;;;;;5053451;28;20059;-80
2024/02/06 04:53:53;;;;;;;36.67;6.93;;;10.70;99.90;;;;;;5035968;28;20036;-80
2024/02/06 04:56:22;;;;;;;35.63;7.10;;;10.70;99.90;;;;;;5053219;28;20028;-81
2024/02/06 04:58:49;;;;;;;28.63;5.90;;;10.70;99.90;;;;;;5053286;28;20033;-80
2024/02/06 05:01:14;;;;;;;26.10;5.25;;;10.70;99.90;;;;;;5053578;28;20389;-81
2024/02/06 05:03:40;;;;;;;37.22;6.85;;;10.70;99.90;;;;;;5053593;28;20029;-80
2024/02/06 05:06:07;;;;;;;46.38;6.90;;;10.70;99.90;;;;;;5048413;28;20036;-81
2024/02/06 05:08:34;;;;;;;33.42;6.18;;;10.70;99.90;;;;;;5043033;28;20028;-81
2024/02/06 05:10:59;;;;;;;27.50;6.32;;;10.70;99.90;;;;;;5053439;28;20029;-80
2024/02/06 05:13:25;;;;;;;36.13;6.70;;;10.70;99.90;;;;;;5052758;28;20024;-81
2024/02/06 05:15:51;;;;;;;32.67;7.07;;;10.70;99.90;;;;;;5052952;28;20481;-80
2024/02/06 05:18:17;;;;;;;44.65;6.00;;;10.70;99.90;;;;;;5053494;28;20108;-80
2024/02/06 05:20:43;;;;;;;40.53;7.68;;;10.70;99.90;;;;;;5052417;28;20112;-80
2024/02/06 05:23:09;;;;;;;38.83;7.22;;;10.70;99.90;;;;;;5053073;28;20044;-80
2024/02/06 05:25:35;;;;;;;32.33;5.13;;;10.80;99.90;;;;;;5052703;28;20033;-81
2024/02/06 05:28:00;;;;;;;31.15;6.38;;;10.80;99.90;;;;;;5047167;28;20048;-81
2024/02/06 05:30:26;;;;;;;44.40;7.18;;;10.70;99.90;;;;;;5046891;28;20036;-80
2024/02/06 05:32:52;;;;;;;36.42;6.63;;;10.80;99.90;;;;;;5052875;28;20036;-80
2024/02/06 05:35:17;;;;;;;41.50;6.18;;;10.80;99.90;;;;;;5052194;28;20032;-80
2024/02/06 05:37:43;;;;;;;34.95;6.25;;;10.70;99.90;;;;;;5053027;28;20025;-81
2024/02/06 05:40:12;;;;;;;47.05;7.15;;;10.70;99.90;;;;;;5052935;28;20468;-80
2024/02/06 05:42:37;;;;;;;39.58;6.97;;;10.70;99.90;;;;;;5052368;28;20033;-81
2024/02/06 05:45:05;;;;;;;43.25;6.70;;;10.70;99.90;;;;;;5052980;28;20025;-80
2024/02/06 05:47:31;;;;;;;49.72;8.32;;;10.70;99.90;;;;;;5052286;28;20610;-81
2024/02/06 05:49:57;;;;;;;36.97;7.53;;;10.60;99.90;;;;;;5052072;28;20123;-81
2024/02/06 05:52:22;;;;;;;36.85;7.53;;;10.60;99.90;;;;;;5045094;28;20155;-80
2024/02/06 05:54:48;;;;;;;47.50;6.47;;;10.60;99.90;;;;;;5050579;28;20085;-80
2024/02/06 05:57:13;;;;;;;37.20;7.30;;;10.60;99.90;;;;;;5052430;28;20029;-81
2024/02/06 05:59:40;;;;;;;36.28;6.20;;;10.60;99.90;;;;;;5052371;28;20098;-80
2024/02/06 06:02:05;;;;;;;40.13;6.97;;;10.60;99.90;;;;;;5051590;28;20025;-81
2024/02/06 06:04:31;;;;;;;49.30;7.18;;;10.60;99.90;;;;;;5052524;28;20031;-81
2024/02/06 06:06:56;;;;;;;37.70;6.65;;;10.60;99.90;;;;;;5052216;28;20106;-81
2024/02/06 06:09:22;;;;;;;33.55;6.05;;;11.80;99.90;;;;;;5050986;28;20070;-80
2024/02/06 06:11:47;;;;;;;42.15;6.13;;;10.60;99.90;;;;;;5049899;28;20029;-81
2024/02/06 06:14:13;;;;;;;41.22;6.63;;;10.70;99.90;;;;;;5044658;28;20388;-80
2024/02/06 06:16:39;;;;;;;34.35;6.57;;;10.60;99.90;;;;;;5051048;28;20025;-80
2024/02/06 06:19:04;;;;;;;36.45;6.88;;;10.70;99.90;;;;;;5052344;28;20485;-80
2024/02/06 06:21:30;;;;;;;36.22;7.57;;;10.60;99.90;;;;;;5052498;28;20481;-80
2024/02/06 06:23:55;;;;;;;51.70;7.00;;;10.70;99.90;;;;;;5051657;28;20061;-80
2024/02/06 06:26:21;;;;;;;42.55;7.38;;;10.60;99.90;;;;;;5052294;28;20105;-80
2024/02/06 06:28:46;;;;;;;32.78;5.78;;;10.60;99.90;;;;;;5052059;28;20116;-80
2024/02/06 06:31:12;;;;;;;44.85;6.55;;;10.60;99.90;;;;;;5051546;28;20017;-80
2024/02/06 06:33:37;;;;;;;31.40;7.20;;;10.70;99.90;;;;;;5040303;28;20033;-80
2024/02/06 06:36:03;;;;;;;39.45;7.80;;;10.70;99.90;;;;;;5049688;28;20388;-81
2024/02/06 06:38:29;;;;;;;34.67;6.22;;;10.70;99.90;;;;;;5051202;28;20041;-81
2024/02/06 06:40:54;;;;;;;43.75;7.38;;;10.70;99.90;;;;;;5049851;28;20477;-79
2024/02/06 06:43:20;;;;;;;44.55;7.60;;;10.60;99.90;;;;;;5051651;28;20537;-80
2024/02/06 06:45:46;;;;;;;43.25;7.18;;;10.70;99.90;;;;;;5050800;28;20516;-81
2024/02/06 06:48:11;;;;;;;41.40;7.07;;;10.70;99.90;;;;;;5052289;28;20436;-81
2024/02/06 06:50:37;;;;;;;40.92;7.95;;;10.70;99.90;;;;;;5051778;28;20071;-81
2024/02/06 06:53:03;;;;;;;33.35;6.32;;;10.80;99.90;;;;;;5048416;28;20066;-82
2024/02/06 06:55:28;;;;;;;45.17;7.22;;;10.70;99.90;;;;;;5050265;28;20481;-82
2024/02/06 06:57:54;;;;;;;34.83;6.43;;;10.70;99.90;;;;;;5045924;28;20388;-83
2024/02/06 07:00:20;;;;;;;29.27;6.68;;;10.80;99.90;;;;;;5051413;28;20037;-82
2024/02/06 07:02:46;;;;;;;32.78;7.97;;;10.80;99.90;;;;;;5051705;28;20131;-82
2024/02/06 07:05:11;;;;;;;46.80;8.20;;;10.80;99.90;;;;;;5049776;28;20536;-83
2024/02/06 07:07:38;;;;;;;47.38;7.10;;;10.70;99.90;;;;;;5050972;28;20427;-82
2024/02/06 07:10:04;;;;;;;39.15;6.70;;;10.70;99.90;;;;;;5051300;28;20063;-82
2024/02/06 07:12:30;;;;;;;37.20;7.18;;;10.80;99.90;;;;;;5050208;28;20668;-82
2024/02/06 07:14:56;;;;;;;35.38;6.50;;;10.80;99.90;;;;;;5049223;28;20025;-82
2024/02/06 07:17:21;;;;;;;46.28;7.13;;;10.80;99.90;;;;;;5041054;28;20066;-82
2024/02/06 07:19:47;;;;;;;35.70;7.18;;;10.80;99.90;;;;;;5041998;28;20116;-82
2024/02/06 07:22:12;;;;;;;51.15;7.38;;;10.80;99.90;;;;;;5050536;28;20067;-83
2024/02/06 07:24:38;;;;;;;44.22;7.35;;;10.80;99.90;;;;;;5048764;28;20111;-82
2024/02/06 07:27:05;;;;;;;30.63;6.57;;;10.80;99.90;;;;;;5050022;28;20036;-82
2024/02/06 07:29:31;;;;;;;33.67;5.85;;;10.80;99.90;;;;;;5050432;28;20473;-83
2024/02/06 07:31:57;;;;;;;37.20;7.28;;;10.80;99.90;;;;;;5051169;28;20064;-83
2024/02/06 07:34:22;;;;;;;33.28;7.43;;;10.80;99.90;;;;;;5050761;28;20025;-81
2024/02/06 07:36:48;;;;;;;37.42;6.72;;;11.10;99.90;;;;;;5048799;28;20017;-82
2024/02/06 07:39:14;;;;;;;45.95;8.02;;;11.50;99.90;;;;;;5033002;28;20057;-81
2024/02/06 07:41:39;;;;;;;42.30;6.55;;;10.90;99.90;;;;;;5044144;28;20021;-83
2024/02/06 07:44:05;;;;;;;46.67;7.68;;;10.80;99.90;;;;;;5043029;28;20040;-81
2024/02/06 07:46:31;;;;;;;36.35;8.00;;;10.80;99.90;;;;;;5045213;28;20112;-81
2024/02/06 07:48:56;;;;;;;44.33;7.25;;;10.90;99.90;;;;;;5048689;28;20551;-81
2024/02/06 07:51:25;;;;;;;30.45;6.35;;;10.90;99.90;;;;;;5046029;28;20065;-81
2024/02/06 07:53:51;;;;;;;39.50;7.63;;;10.90;99.90;;;;;;5037656;28;20032;-82
2024/02/06 07:56:20;;;;;;;35.75;6.43;;;11.10;99.90;;;;;;5037615;28;20033;-82
2024/02/06 07:58:46;;;;;;;44.30;6.25;;;11.50;99.90;;;;;;5034069;28;20049;-81
2024/02/06 08:01:12;;;;;;;44.63;7.13;;;10.90;99.90;;;;;;5041179;28;20376;-82
2024/02/06 08:03:38;;;;;;;54.63;8.23;;;10.90;99.90;;;;;;5038488;28;20025;-81
2024/02/06 08:06:04;;;;;;;46.78;6.57;;;10.90;99.90;;;;;;5037750;28;20059;-82
2024/02/06 08:08:29;;;;;;;39.22;6.78;;;10.90;99.90;;;;;;5028631;28;20444;-83
2024/02/06 08:10:55;;;;;;;33.15;6.72;;;10.90;99.90;;;;;;5031135;28;20429;-81
2024/02/06 08:13:21;;;;;;;29.65;5.82;;;10.90;99.90;;;;;;5046774;28;20032;-82
2024/02/06 08:15:46;;;;;;;35.08;6.60;;;10.90;99.90;;;;;;5050509;28;20033;-82
2024/02/06 08:18:12;;;;;;;40.45;7.35;;;10.90;99.90;;;;;;5049675;28;20024;-81
2024/02/06 08:20:37;;;;;;;24.92;6.93;;;11.00;99.90;;;;;;5046552;28;20099;-82
2024/02/06 08:23:03;;;;;;;33.63;6.60;;;11.00;99.90;;;;;;5045393;28;20112;-81
2024/02/06 08:25:29;;;;;;;23.95;5.65;;;11.00;99.90;;;;;;5039202;28;20042;-81
2024/02/06 08:27:54;;;;;;;35.63;6.50;;;11.10;99.90;;;;;;5047155;28;20026;-80
2024/02/06 08:30:20;;;;;;;31.17;6.22;;;11.00;99.90;;;;;;5038064;28;20037;-80
2024/02/06 08:32:46;;;;;;;33.15;6.65;;;11.00;99.90;;;;;;5052585;28;20025;-80
2024/02/06 08:35:12;;;;;;;32.20;6.43;;;11.00;99.90;;;;;;5050540;28;20060;-80
2024/02/06 08:37:38;;;;;;;19.42;4.28;;;12.10;99.90;;;;;;5037126;28;20056;-78
2024/02/06 08:40:06;;;;;;;29.35;5.40;;;11.10;99.90;;;;;;5033786;28;20484;-78
2024/02/06 08:42:36;;;;;;;35.58;5.57;;;11.10;99.90;;;;;;5048071;28;20033;-81
2024/02/06 08:45:02;;;;;;;35.60;6.40;;;11.10;99.90;;;;;;5040043;28;20136;-79
2024/02/06 08:47:28;;;;;;;23.95;6.30;;;11.10;99.90;;;;;;5053513;28;20048;-79
2024/02/06 08:49:54;;;;;;;31.23;5.28;;;11.10;99.90;;;;;;5053241;28;20488;-80
2024/02/06 08:52:20;;;;;;;37.03;5.85;;;11.10;99.90;;;;;;5052753;28;20119;-79
2024/02/06 08:54:45;;;;;;;22.27;5.18;;;11.10;99.90;;;;;;5053049;28;20021;-80
2024/02/06 08:57:11;;;;;;;25.23;4.68;;;11.10;99.90;;;;;;5052214;28;20017;-81
2024/02/06 08:59:37;;;;;;;23.40;5.32;;;11.20;99.90;;;;;;5052589;28;20079;-79
2024/02/06 09:02:03;;;;;;;38.45;6.88;;;11.20;99.90;;;;;;5053109;28;20538;-79
2024/02/06 09:04:29;;;;;;;24.90;5.60;;;11.20;99.90;;;;;;5041243;28;20033;-80
2024/02/06 09:06:55;;;;;;;24.35;5.60;;;11.20;99.90;;;;;;5043168;28;20040;-78
2024/02/06 09:09:23;;;;;;;23.30;5.25;;;11.20;99.90;;;;;;5041265;28;20041;-78
2024/02/06 09:11:49;;;;;;;35.88;5.88;;;11.30;99.90;;;;;;5037869;28;20021;-82
2024/02/06 09:14:15;;;;;;;21.15;4.35;;;11.30;99.90;;;;;;5042963;28;20059;-82
2024/02/06 09:16:40;;;;;;;28.75;5.30;;;11.30;99.90;;;;;;5053189;28;20043;-82
2024/02/06 09:19:08;;;;;;;28.33;5.20;;;11.30;99.90;;;;;;5052003;28;20392;-82
2024/02/06 09:21:34;;;;;;;39.17;6.57;;;11.30;99.90;;;;;;5032608;28;20029;-83
2024/02/06 09:24:00;;;;;;;24.58;5.10;;;11.70;99.90;;;;;;5033270;28;20045;-82
2024/02/06 09:26:25;;;;;;;24.48;6.53;;;11.30;99.90;;;;;;5045072;28;20025;-82
2024/02/06 09:28:51;;;;;;;29.95;4.72;;;11.30;99.90;;;;;;5045195;28;20087;-80
2024/02/06 09:31:16;;;;;;;32.22;6.20;;;11.40;99.90;;;;;;5043870;28;20040;-81
2024/02/06 09:33:43;;;;;;;23.42;5.13;;;11.40;99.90;;;;;;5047153;28;20464;-81
2024/02/06 09:36:08;;;;;;;29.70;5.85;;;11.40;99.90;;;;;;5048687;28;20082;-80
2024/02/06 09:38:34;;;;;;;31.73;4.85;;;11.80;99.90;;;;;;5050342;28;20112;-84
2024/02/06 09:41:00;;;;;;;25.83;5.13;;;11.50;99.90;;;;;;5050616;28;20024;-80
2024/02/06 09:43:27;;;;;;;22.00;4.72;;;11.50;99.90;;;;;;5030810;28;20061;-82
2024/02/06 09:45:53;;;;;;;27.23;5.13;;;11.50;99.90;;;;;;5045969;28;20496;-82
2024/02/06 09:48:24;;;;;;;28.95;5.43;;;11.50;99.90;;;;;;5047544;28;20052;-82
2024/02/06 09:50:56;;;;;;;29.38;5.82;;;11.50;99.90;;;;;;5042231;28;20036;-82
2024/02/06 09:53:29;;;;;;;30.92;5.88;;;11.60;99.90;;;;;;5051313;28;20023;-82
2024/02/06 09:55:55;;;;;;;31.45;5.05;;;11.60;99.90;;;;;;5047091;28;20032;-82
2024/02/06 09:58:22;;;;;;;20.00;4.85;;;11.60;99.90;;;;;;5047572;28;20404;-81
2024/02/06 10:00:50;;;;;;;31.02;6.22;;;11.80;99.90;;;;;;5047818;28;20024;-83
2024/02/06 10:03:27;;;;;;;19.15;5.20;;;11.70;99.90;;;;;;5045283;28;20333;-82
2024/02/06 10:05:57;;;;;;;35.35;6.25;;;11.60;99.90;;;;;;5039566;28;20519;-81
2024/02/06 10:08:23;;;;;;;;;;;11.70;99.90;;;;;;5046430;28;20113;-82
2024/02/06 10:10:50;;;;;;;34.97;5.55;;;11.70;99.90;;;;;;5045331;28;20339;-81
2024/02/06 10:13:16;;;;;;;27.33;5.50;;;11.70;99.90;;;;;;5048404;28;20082;-82
2024/02/06 10:15:42;;;;;;;35.85;6.45;;;11.70;99.90;;;;;;5048210;28;20029;-82
2024/02/06 10:18:08;;;;;;;32.45;5.05;;;11.80;99.90;;;;;;5051771;28;20021;-82
2024/02/06 10:20:49;;;;;;;26.60;5.07;;;12.40;99.90;;;;;;5051111;28;20093;-81
2024/02/06 10:23:19;;;;;;;28.60;5.60;;;11.90;99.90;;;;;;5044013;28;20033;-83
2024/02/06 10:25:45;;;;;;;29.58;5.72;;;12.80;99.90;;;;;;5048384;28;20060;-81
2024/02/06 10:28:23;;;;;;;30.95;5.53;;;12.70;99.90;;;;;;5050695;28;20064;-81
2024/02/06 10:30:49;;;;;;;29.40;5.53;;;11.90;99.90;;;;;;5046912;28;20538;-81
2024/02/06 10:33:15;;;;;;;32.42;6.18;;;12.50;99.90;;;;;;5044911;28;20033;-81
2024/02/06 10:35:41;;;;;;;30.50;6.13;;;11.90;99.90;;;;;;5033589;28;20029;-81
2024/02/06 10:38:15;;;;;;;29.02;5.88;;;12.00;99.90;;;;;;5048449;28;20056;-81
2024/02/06 10:40:44;;;;;;;27.70;5.20;;;12.00;99.90;;;;;;5047727;28;20033;-82
2024/02/06 10:43:10;;;;;;;29.85;5.35;;;12.00;99.90;;;;;;5049423;28;20063;-82
2024/02/06 10:45:37;;;;;;;23.20;4.55;;;12.00;99.90;;;;;;5026815;28;20034;-81
2024/02/06 10:48:03;;;;;;;25.15;5.55;;;12.00;99.90;;;;;;5029023;28;20033;-83
2024/02/06 10:50:30;;;;;;;24.00;4.90;;;12.10;99.90;;;;;;5033482;28;20043;-82
2024/02/06 10:52:56;;;;;;;21.38;4.55;;;12.10;99.90;;;;;;5032090;28;20024;-82
2024/02/06 10:55:22;;;;;;;19.00;4.80;;;12.10;99.90;;;;;;5050154;28;20055;-82
2024/02/06 10:57:53;;;;;;;18.17;4.68;;;12.10;99.90;;;;;;5044180;28;20052;-81
2024/02/06 11:00:21;;;;;;;19.30;5.15;;;12.10;99.90;;;;;;5033568;28;20021;-83
2024/02/06 11:02:57;;;;;;;19.00;4.15;;;12.70;99.90;;;;;;5050097;28;20068;-83
2024/02/06 11:05:48;;;;;;;17.42;3.53;;;12.10;99.90;;;;;;5049835;28;20025;-82
2024/02/06 11:08:17;;;;;;;26.60;4.35;;;12.00;99.90;;;;;;5026972;28;20029;-81
2024/02/06 11:10:51;;;;;;;14.60;3.40;;;12.00;99.90;;;;;;5031179;28;20036;-82
2024/02/06 11:13:26;;;;;;;13.63;4.03;;;12.00;99.90;;;;;;5030590;28;20048;-83
2024/02/06 11:15:53;;;;;;;16.58;4.60;;;12.00;99.90;;;;;;5030177;28;20025;-81
2024/02/06 11:18:21;;;;;;;19.25;3.75;;;12.00;99.90;;;;;;5030319;28;20490;-82
2024/02/06 11:20:53;;;;;;;16.13;4.03;;;12.00;99.90;;;;;;5047032;28;20104;-81
2024/02/06 11:23:20;;;;;;;9.90;3.60;;;12.00;99.90;;;;;;5044857;28;20484;-81
2024/02/06 11:25:51;;;;;;;21.58;4.68;;;12.00;99.90;;;;;;5043748;28;20033;-82
2024/02/06 11:28:17;;;;;;;21.80;4.20;;;12.00;99.90;;;;;;5051418;28;20028;-81
2024/02/06 11:30:44;;;;;;;14.82;4.28;;;12.00;99.90;;;;;;5050036;28;20041;-82
2024/02/06 11:33:10;;;;;;;13.57;3.92;;;12.00;99.90;;;;;;5049067;28;20078;-82
2024/02/06 11:35:36;;;;;;;16.05;3.70;;;12.00;99.90;;;;;;5031705;28;20439;-83
2024/02/06 11:38:02;;;;;;;15.43;3.70;;;11.90;99.90;;;;;;5050108;28;20029;-83
2024/02/06 11:40:32;;;;;;;15.32;3.63;;;12.00;99.90;;;;;;5046828;28;20068;-83
2024/02/06 11:43:03;;;;;;;25.30;4.13;;;11.90;99.90;;;;;;5050026;28;20032;-83
2024/02/06 11:45:30;;;;;;;28.33;3.83;;;11.90;99.90;;;;;;5049795;28;20016;-81
2024/02/06 11:48:00;;;;;;;14.25;4.38;;;11.90;99.90;;;;;;5048466;28;20103;-81
2024/02/06 11:50:31;;;;;;;26.67;4.70;;;11.90;99.90;;;;;;5047212;28;20029;-81
2024/02/06 11:53:04;;;;;;;21.17;4.07;;;12.30;99.90;;;;;;5049433;28;20031;-83
2024/02/06 11:55:31;;;;;;;23.85;4.00;;;11.90;99.90;;;;;;5044697;28;20103;-83
2024/02/06 11:58:00;;;;;;;34.65;5.30;;;11.80;99.90;;;;;;5047278;28;20060;-85
2024/02/06 12:00:27;;;;;;;28.65;5.72;;;11.80;99.90;;;;;;5045992;28;20575;-84
2024/02/06 12:02:57;;;;;;;27.65;4.90;;;11.80;99.90;;;;;;5041941;28;20041;-84
2024/02/06 12:05:23;;;;;;;28.65;5.53;;;12.70;99.90;;;;;;5046323;28;20468;-83
2024/02/06 12:07:57;;;;;;;31.08;5.32;;;11.80;99.90;;;;;;5049229;28;20054;-83
2024/02/06 12:10:29;;;;;;;29.25;5.28;;;11.90;99.90;;;;;;5046647;28;20435;-84
2024/02/06 12:13:00;;;;;;;28.17;4.68;;;12.10;99.90;;;;;;5050805;28;20021;-84
2024/02/06 12:15:28;;;;;;;26.88;5.47;;;11.80;99.90;;;;;;5049510;28;20037;-87
2024/02/06 12:17:54;;;;;;;37.15;5.72;;;12.00;99.90;;;;;;5043490;28;20492;-83
2024/02/06 12:20:19;;;;;;;24.27;5.28;;;12.00;99.90;;;;;;5047927;28;20033;-84
2024/02/06 12:22:59;;;;;;;30.20;5.95;;;11.90;99.90;;;;;;5048514;28;20044;-83
2024/02/06 12:25:25;;;;;;;34.60;6.03;;;12.00;99.90;;;;;;5046140;28;20044;-82
2024/02/06 12:28:08;;;;;;;31.80;6.78;;;11.90;99.90;;;;;;5050007;28;20029;-82
2024/02/06 12:30:34;;;;;;;20.80;5.10;;;12.00;99.90;;;;;;5038380;28;20512;-82
2024/02/06 12:33:01;;;;;;;28.75;4.90;;;12.00;99.90;;;;;;5033673;28;20075;-84
2024/02/06 12:35:27;;;;;;;30.85;6.43;;;12.00;99.90;;;;;;5034061;28;20532;-83